createdAt,value
2018-04-13T00:00:08.328Z,17.52
2018-04-13T00:02:35.833Z,17.51
2018-04-13T00:05:03.361Z,17.19
2018-04-13T00:07:30.858Z,17.11
2018-04-13T00:09:58.411Z,17.28
2018-04-13T00:12:25.911Z,17.14
2018-04-13T00:14:53.421Z,17.07
2018-04-13T00:17:20.972Z,16.90
2018-04-13T00:19:48.493Z,16.64
2018-04-13T00:22:16.051Z,16.69
2018-04-13T00:24:43.559Z,16.67
2018-04-13T00:27:11.076Z,16.53
2018-04-13T00:29:38.588Z,16.61
2018-04-13T00:32:06.091Z,16.68
2018-04-13T00:34:33.601Z,16.68
2018-04-13T00:37:01.115Z,16.57
2018-04-13T00:39:28.621Z,16.51
2018-04-13T00:41:56.213Z,16.44
2018-04-13T00:44:23.726Z,16.34
2018-04-13T00:46:51.241Z,16.16
2018-04-13T00:49:18.749Z,16.21
2018-04-13T00:51:46.260Z,16.17
2018-04-13T00:54:13.779Z,16.11
2018-04-13T00:56:41.295Z,16.10
2018-04-13T00:59:08.807Z,15.92
2018-04-13T01:01:36.356Z,15.86
2018-04-13T01:04:03.870Z,15.97
2018-04-13T01:06:31.387Z,15.95
2018-04-13T01:08:58.896Z,15.81
2018-04-13T01:11:26.400Z,15.73
2018-04-13T01:13:53.947Z,15.75
2018-04-13T01:16:21.454Z,15.69
2018-04-13T01:18:48.995Z,15.77
2018-04-13T01:21:16.508Z,15.69
2018-04-13T01:23:44.059Z,15.65
2018-04-13T01:26:11.567Z,15.37
2018-04-13T01:28:39.081Z,15.56
2018-04-13T01:31:06.639Z,15.46
2018-04-13T01:33:34.163Z,15.42
2018-04-13T01:36:01.665Z,15.39
2018-04-13T01:38:29.220Z,15.38
2018-04-13T01:40:56.764Z,15.32
2018-04-13T01:43:24.321Z,15.20
2018-04-13T01:45:51.879Z,15.28
2018-04-13T01:48:19.685Z,15.23
2018-04-13T01:50:47.203Z,15.32
2018-04-13T01:53:14.720Z,15.30
2018-04-13T01:55:42.262Z,15.39
2018-04-13T01:58:09.816Z,15.34
2018-04-13T02:00:37.331Z,15.13
2018-04-13T02:03:04.841Z,15.19
2018-04-13T02:05:32.348Z,15.12
2018-04-13T02:07:59.888Z,15.08
2018-04-13T02:10:27.395Z,15.08
2018-04-13T02:12:54.914Z,15.06
2018-04-13T02:15:22.477Z,15.08
2018-04-13T02:17:49.992Z,15.04
2018-04-13T02:20:17.531Z,15.07
2018-04-13T02:22:45.095Z,15.13
2018-04-13T02:25:12.603Z,14.96
2018-04-13T02:27:40.108Z,15.01
2018-04-13T02:30:07.763Z,15.11
2018-04-13T02:32:35.267Z,15.17
2018-04-13T02:35:02.774Z,15.20
2018-04-13T02:37:30.292Z,14.98
2018-04-13T02:39:57.849Z,14.95
2018-04-13T02:42:25.359Z,14.85
2018-04-13T02:44:52.873Z,14.96
2018-04-13T02:47:20.375Z,15.06
2018-04-13T02:49:47.885Z,15.10
2018-04-13T02:52:15.400Z,15.10
2018-04-13T02:54:42.903Z,15.10
2018-04-13T02:57:10.455Z,15.20
2018-04-13T02:59:37.958Z,15.11
2018-04-13T03:02:05.508Z,14.91
2018-04-13T03:04:33.024Z,14.80
2018-04-13T03:07:00.572Z,14.87
2018-04-13T03:09:28.145Z,14.85
2018-04-13T03:11:55.658Z,14.87
2018-04-13T03:14:23.192Z,14.71
2018-04-13T03:16:50.756Z,14.71
2018-04-13T03:19:18.299Z,14.83
2018-04-13T03:21:45.808Z,14.66
2018-04-13T03:24:13.325Z,14.56
2018-04-13T03:26:40.848Z,14.58
2018-04-13T03:29:08.415Z,14.64
2018-04-13T03:31:35.961Z,14.40
2018-04-13T03:34:03.507Z,14.41
2018-04-13T03:36:31.082Z,14.38
2018-04-13T03:38:58.638Z,14.25
2018-04-13T03:41:26.163Z,14.40
2018-04-13T03:43:53.706Z,14.46
2018-04-13T03:46:21.231Z,14.27
2018-04-13T03:48:48.782Z,14.28
2018-04-13T03:51:16.288Z,14.10
2018-04-13T03:53:43.798Z,14.13
2018-04-13T03:56:11.315Z,14.09
2018-04-13T03:58:38.854Z,14.18
2018-04-13T04:01:06.394Z,14.05
2018-04-13T04:03:33.905Z,14.01
2018-04-13T04:06:01.452Z,14.04
2018-04-13T04:08:29.010Z,14.15
2018-04-13T04:10:56.534Z,14.22
2018-04-13T04:13:24.054Z,14.14
2018-04-13T04:15:51.563Z,14.11
2018-04-13T04:18:19.068Z,14.25
2018-04-13T04:20:58.390Z,14.39
2018-04-13T04:23:37.855Z,14.46
2018-04-13T04:26:22.185Z,14.47
2018-04-13T04:28:49.771Z,14.52
2018-04-13T04:31:17.358Z,14.68
2018-04-13T04:33:44.863Z,14.91
2018-04-13T04:36:12.412Z,15.17
2018-04-13T04:38:39.929Z,15.46
2018-04-13T04:41:07.451Z,15.32
2018-04-13T04:43:35.002Z,15.43
2018-04-13T04:46:02.546Z,15.78
2018-04-13T04:48:30.117Z,16.20
2018-04-13T04:50:57.660Z,16.57
2018-04-13T04:53:25.171Z,16.61
2018-04-13T04:55:52.693Z,16.61
2018-04-13T04:58:20.217Z,17.23
2018-04-13T05:00:47.767Z,17.72
2018-04-13T05:03:15.324Z,17.73
2018-04-13T05:05:42.867Z,17.64
2018-04-13T05:08:10.420Z,17.72
2018-04-13T05:10:37.935Z,18.26
2018-04-13T05:13:05.489Z,18.55
2018-04-13T05:15:33.001Z,19.26
2018-04-13T05:18:00.513Z,18.91
2018-04-13T05:20:28.021Z,19.54
2018-04-13T05:22:55.570Z,19.54
2018-04-13T05:25:23.081Z,19.04
2018-04-13T05:27:50.697Z,18.36
2018-04-13T05:30:18.257Z,18.51
2018-04-13T05:32:45.770Z,18.94
2018-04-13T05:35:13.340Z,19.88
2018-04-13T05:37:40.887Z,20.05
2018-04-13T05:40:08.443Z,21.11
2018-04-13T05:42:35.965Z,21.81
2018-04-13T05:45:03.479Z,21.50
2018-04-13T05:47:31.036Z,20.44
2018-04-13T05:49:58.556Z,20.09
2018-04-13T05:52:26.379Z,20.24
2018-04-13T05:54:53.924Z,20.31
2018-04-13T05:57:21.435Z,20.98
2018-04-13T05:59:49.016Z,20.54
2018-04-13T06:02:16.620Z,21.01
2018-04-13T06:04:44.119Z,21.01
2018-04-13T06:07:11.689Z,21.39
2018-04-13T06:09:39.180Z,20.84
2018-04-13T06:12:06.774Z,22.16
2018-04-13T06:14:34.298Z,22.91
2018-04-13T06:17:01.848Z,23.18
2018-04-13T06:19:29.442Z,24.04
2018-04-13T06:21:56.947Z,24.17
2018-04-13T06:24:24.476Z,24.52
2018-04-13T06:26:51.989Z,23.58
2018-04-13T06:29:19.540Z,23.41
2018-04-13T06:31:47.116Z,22.41
2018-04-13T06:34:14.636Z,22.05
2018-04-13T06:36:42.179Z,23.47
2018-04-13T06:39:09.688Z,23.52
2018-04-13T06:41:37.208Z,24.48
2018-04-13T06:44:04.770Z,25.02
2018-04-13T06:46:32.286Z,26.11
2018-04-13T06:48:59.787Z,25.74
2018-04-13T06:51:27.312Z,25.78
2018-04-13T06:53:54.877Z,25.28
2018-04-13T06:56:22.389Z,25.48
2018-04-13T06:58:49.899Z,24.97
2018-04-13T07:01:17.494Z,26.14
2018-04-13T07:03:45.007Z,26.25
2018-04-13T07:06:12.559Z,26.52
2018-04-13T07:08:40.128Z,27.22
2018-04-13T07:11:07.691Z,25.03
2018-04-13T07:13:35.239Z,25.22
2018-04-13T07:16:02.763Z,23.85
2018-04-13T07:18:30.331Z,23.89
2018-04-13T07:20:57.844Z,25.71
2018-04-13T07:23:25.356Z,26.74
2018-04-13T07:25:52.919Z,26.34
2018-04-13T07:28:20.436Z,26.57
2018-04-13T07:30:48.803Z,25.85
2018-04-13T07:33:16.427Z,26.07
2018-04-13T07:35:44.051Z,26.18
2018-04-13T07:38:11.572Z,25.55
2018-04-13T07:40:39.123Z,25.70
2018-04-13T07:43:06.640Z,26.32
2018-04-13T07:45:34.188Z,26.83
2018-04-13T07:48:01.805Z,26.03
2018-04-13T07:50:29.353Z,26.65
2018-04-13T07:52:56.855Z,28.59
2018-04-13T07:55:24.374Z,28.87
2018-04-13T07:57:51.896Z,28.64
2018-04-13T08:00:19.731Z,27.40
2018-04-13T08:02:47.059Z,28.00
2018-04-13T08:05:14.614Z,28.23
2018-04-13T08:07:42.590Z,27.75
2018-04-13T08:10:10.088Z,27.12
2018-04-13T08:12:37.827Z,28.94
2018-04-13T08:15:05.171Z,28.87
2018-04-13T08:17:32.707Z,29.20
2018-04-13T08:20:00.256Z,28.59
2018-04-13T08:22:27.759Z,26.87
2018-04-13T08:24:55.306Z,27.63
2018-04-13T08:27:22.864Z,28.10
2018-04-13T08:29:50.427Z,27.80
2018-04-13T08:32:17.972Z,29.02
2018-04-13T08:34:45.491Z,27.53
2018-04-13T08:37:13.045Z,28.17
2018-04-13T08:39:40.550Z,30.78
2018-04-13T08:42:08.052Z,30.06
2018-04-13T08:44:35.603Z,29.73
2018-04-13T08:47:03.132Z,30.34
2018-04-13T08:49:30.694Z,29.55
2018-04-13T08:51:58.245Z,29.43
2018-04-13T08:54:25.764Z,29.06
2018-04-13T08:56:53.312Z,29.47
2018-04-13T08:59:20.811Z,29.96
2018-04-13T09:01:48.320Z,29.48
2018-04-13T09:04:15.836Z,29.92
2018-04-13T09:06:43.343Z,29.29
2018-04-13T09:09:10.866Z,30.23
2018-04-13T09:11:38.378Z,30.59
2018-04-13T09:14:05.929Z,29.97
2018-04-13T09:16:33.495Z,30.89
2018-04-13T09:19:01.040Z,30.19
2018-04-13T09:21:28.543Z,30.31
2018-04-13T09:23:56.052Z,30.25
2018-04-13T09:26:23.559Z,30.20
2018-04-13T09:28:51.231Z,29.43
2018-04-13T09:31:18.855Z,30.06
2018-04-13T09:33:46.369Z,30.56
2018-04-13T09:36:13.879Z,30.23
2018-04-13T09:38:41.385Z,30.86
2018-04-13T09:41:08.909Z,30.54
2018-04-13T09:43:36.465Z,30.42
2018-04-13T09:46:04.014Z,29.85
2018-04-13T09:48:31.603Z,31.40
2018-04-13T09:50:59.124Z,30.76
2018-04-13T09:53:26.640Z,30.07
2018-04-13T09:55:54.147Z,31.01
2018-04-13T09:58:21.751Z,31.37
2018-04-13T10:00:54.854Z,29.94
2018-04-13T10:03:22.377Z,29.58
2018-04-13T10:05:49.885Z,31.05
2018-04-13T10:08:17.484Z,32.06
2018-04-13T10:10:45.008Z,32.56
2018-04-13T10:13:13.444Z,32.62
2018-04-13T10:15:41.023Z,29.97
2018-04-13T10:18:08.532Z,30.00
2018-04-13T10:20:36.081Z,28.74
2018-04-13T10:23:03.588Z,30.41
2018-04-13T10:25:31.152Z,30.52
2018-04-13T10:27:58.793Z,30.86
2018-04-13T10:30:26.340Z,30.56
2018-04-13T10:32:53.852Z,30.87
2018-04-13T10:35:21.410Z,30.83
2018-04-13T10:37:48.913Z,31.24
2018-04-13T10:40:16.517Z,32.86
2018-04-13T10:42:44.032Z,33.07
2018-04-13T10:45:11.531Z,32.32
2018-04-13T10:47:39.036Z,32.81
2018-04-13T10:50:06.601Z,33.06
2018-04-13T10:52:34.108Z,33.33
2018-04-13T10:55:01.610Z,32.05
2018-04-13T10:57:29.116Z,32.18
2018-04-13T10:59:56.624Z,33.27
2018-04-13T11:02:24.162Z,33.15
2018-04-13T11:04:51.720Z,31.20
2018-04-13T11:07:19.269Z,31.22
2018-04-13T11:09:46.780Z,31.32
2018-04-13T11:12:14.314Z,32.82
2018-04-13T11:14:41.839Z,33.04
2018-04-13T11:17:09.433Z,31.76
2018-04-13T11:19:37.007Z,31.80
2018-04-13T11:22:04.515Z,31.41
2018-04-13T11:24:32.020Z,31.10
2018-04-13T11:26:59.563Z,29.88
2018-04-13T11:29:27.076Z,31.18
2018-04-13T11:31:54.620Z,32.71
2018-04-13T11:34:22.174Z,31.56
2018-04-13T11:36:49.687Z,32.38
2018-04-13T11:39:17.247Z,33.07
2018-04-13T11:41:44.770Z,32.90
2018-04-13T11:44:12.271Z,32.84
2018-04-13T11:46:39.772Z,32.79
2018-04-13T11:49:07.747Z,32.36
2018-04-13T11:51:35.276Z,33.84
2018-04-13T11:54:02.793Z,33.63
2018-04-13T11:56:30.455Z,33.86
2018-04-13T11:58:57.964Z,32.24
2018-04-13T12:01:25.483Z,32.06
2018-04-13T12:03:53.027Z,32.06
2018-04-13T12:06:20.536Z,32.56
2018-04-13T12:08:48.038Z,31.34
2018-04-13T12:11:15.543Z,32.07
2018-04-13T12:13:43.046Z,33.17
2018-04-13T12:16:10.591Z,33.03
2018-04-13T12:18:38.101Z,33.44
2018-04-13T12:21:05.642Z,33.36
2018-04-13T12:23:33.190Z,33.54
2018-04-13T12:26:00.694Z,33.61
2018-04-13T12:28:28.231Z,32.30
2018-04-13T12:30:55.780Z,31.16
2018-04-13T12:33:23.351Z,31.94
2018-04-13T12:35:50.867Z,31.39
2018-04-13T12:38:18.430Z,31.78
2018-04-13T12:40:45.972Z,31.47
2018-04-13T12:43:13.582Z,31.20
2018-04-13T12:45:41.241Z,30.18
2018-04-13T12:48:08.751Z,29.46
2018-04-13T12:50:36.316Z,29.08
2018-04-13T12:53:03.832Z,28.84
2018-04-13T12:55:31.367Z,28.67
2018-04-13T12:57:58.953Z,28.72
2018-04-13T13:00:26.502Z,28.57
2018-04-13T13:02:54.007Z,28.95
2018-04-13T13:05:21.551Z,28.55
2018-04-13T13:07:49.055Z,28.95
2018-04-13T13:10:16.600Z,28.99
2018-04-13T13:12:44.139Z,28.56
2018-04-13T13:15:11.651Z,28.61
2018-04-13T13:17:39.151Z,28.89
2018-04-13T13:20:06.770Z,28.84
2018-04-13T13:22:34.291Z,29.02
2018-04-13T13:25:01.815Z,29.27
2018-04-13T13:27:29.335Z,29.11
2018-04-13T13:29:56.859Z,28.83
2018-04-13T13:32:24.427Z,28.96
2018-04-13T13:34:51.941Z,29.14
2018-04-13T13:37:19.452Z,28.63
2018-04-13T13:39:47.012Z,27.91
2018-04-13T13:42:14.569Z,27.77
2018-04-13T13:44:42.075Z,27.80
2018-04-13T13:47:09.621Z,27.95
2018-04-13T13:49:37.141Z,28.11
2018-04-13T13:52:04.716Z,27.92
2018-04-13T13:54:32.219Z,28.34
2018-04-13T13:56:59.757Z,28.47
2018-04-13T13:59:27.263Z,28.29
2018-04-13T14:01:54.799Z,27.64
2018-04-13T14:04:22.315Z,27.83
2018-04-13T14:06:49.912Z,27.84
2018-04-13T14:09:17.424Z,27.71
2018-04-13T14:11:44.971Z,27.75
2018-04-13T14:14:12.473Z,27.63
2018-04-13T14:16:39.985Z,27.40
2018-04-13T14:19:07.494Z,27.32
2018-04-13T14:21:35.056Z,27.30
2018-04-13T14:24:02.591Z,27.30
2018-04-13T14:26:30.107Z,27.25
2018-04-13T14:28:57.620Z,27.26
2018-04-13T14:31:25.155Z,27.07
2018-04-13T14:33:52.745Z,27.09
2018-04-13T14:36:20.242Z,27.07
2018-04-13T14:38:47.787Z,26.96
2018-04-13T14:41:15.333Z,26.78
2018-04-13T14:43:42.849Z,26.68
2018-04-13T14:46:10.404Z,26.61
2018-04-13T14:48:38.004Z,26.63
2018-04-13T14:51:05.504Z,26.67
2018-04-13T14:53:33.041Z,26.58
2018-04-13T14:56:00.578Z,26.69
2018-04-13T14:58:28.120Z,26.82
2018-04-13T15:00:55.719Z,26.88
2018-04-13T15:03:23.254Z,27.18
2018-04-13T15:05:50.767Z,27.31
2018-04-13T15:08:18.335Z,27.14
2018-04-13T15:10:45.836Z,26.68
2018-04-13T15:13:13.377Z,26.61
2018-04-13T15:15:40.920Z,26.78
2018-04-13T15:18:08.615Z,26.62
2018-04-13T15:20:36.167Z,26.63
2018-04-13T15:23:03.719Z,26.51
2018-04-13T15:25:31.226Z,26.32
2018-04-13T15:27:58.768Z,26.26
2018-04-13T15:30:26.310Z,26.24
2018-04-13T15:32:53.871Z,26.17
2018-04-13T15:35:21.382Z,26.37
2018-04-13T15:37:48.940Z,26.39
2018-04-13T15:40:16.541Z,26.44
2018-04-13T15:42:43.990Z,26.30
2018-04-13T15:45:11.500Z,26.20
2018-04-13T15:47:39.011Z,26.25
2018-04-13T15:50:06.515Z,26.09
2018-04-13T15:52:34.024Z,26.13
2018-04-13T15:55:01.576Z,25.99
2018-04-13T15:57:29.082Z,25.60
2018-04-13T15:59:56.671Z,25.59
2018-04-13T16:02:24.187Z,25.43
2018-04-13T16:04:51.693Z,25.18
2018-04-13T16:07:19.244Z,25.03
2018-04-13T16:09:46.763Z,24.97
2018-04-13T16:12:14.299Z,25.02
2018-04-13T16:14:41.821Z,25.01
2018-04-13T16:17:09.448Z,24.96
2018-04-13T16:19:36.993Z,25.26
2018-04-13T16:22:04.538Z,25.01
2018-04-13T16:24:32.039Z,24.69
2018-04-13T16:26:59.537Z,24.34
2018-04-13T16:29:27.038Z,24.14
2018-04-13T16:31:54.544Z,23.72
2018-04-13T16:34:22.046Z,23.60
2018-04-13T16:36:49.559Z,23.37
2018-04-13T16:39:17.124Z,23.21
2018-04-13T16:41:44.656Z,23.05
2018-04-13T16:44:12.169Z,23.00
2018-04-13T16:46:39.689Z,22.93
2018-04-13T16:49:07.193Z,22.86
2018-04-13T16:51:34.795Z,22.74
2018-04-13T16:54:02.324Z,22.57
2018-04-13T16:56:29.872Z,22.29
2018-04-13T16:58:57.376Z,22.41
2018-04-13T17:01:24.890Z,22.34
2018-04-13T17:03:52.441Z,22.25
2018-04-13T17:06:19.948Z,22.23
2018-04-13T17:08:47.465Z,22.08
2018-04-13T17:11:14.999Z,22.07
2018-04-13T17:13:42.535Z,22.04
2018-04-13T17:16:10.045Z,21.84
2018-04-13T17:18:37.560Z,21.94
2018-04-13T17:21:05.116Z,21.83
2018-04-13T17:23:32.665Z,21.82
2018-04-13T17:26:00.182Z,21.75
2018-04-13T17:28:27.684Z,21.63
2018-04-13T17:30:55.233Z,21.72
2018-04-13T17:33:22.770Z,21.67
2018-04-13T17:35:50.319Z,21.75
2018-04-13T17:38:17.880Z,21.73
2018-04-13T17:40:45.438Z,21.67
2018-04-13T17:43:12.997Z,21.59
2018-04-13T17:45:40.495Z,21.45
2018-04-13T17:48:08.002Z,21.27
2018-04-13T17:50:35.553Z,21.34
2018-04-13T17:53:03.118Z,21.32
2018-04-13T17:55:30.696Z,21.31
2018-04-13T17:57:58.201Z,21.34
2018-04-13T18:00:25.741Z,21.18
2018-04-13T18:02:53.245Z,21.08
2018-04-13T18:05:20.760Z,21.09
2018-04-13T18:07:48.323Z,20.99
2018-04-13T18:10:15.823Z,20.96
2018-04-13T18:12:43.366Z,20.75
2018-04-13T18:15:10.871Z,20.67
2018-04-13T18:17:38.379Z,20.65
2018-04-13T18:20:05.919Z,20.65
2018-04-13T18:22:35.465Z,20.67
2018-04-13T18:25:03.137Z,20.74
2018-04-13T18:27:30.656Z,20.74
2018-04-13T18:29:58.989Z,20.79
2018-04-13T18:32:27.100Z,20.72
2018-04-13T18:34:54.639Z,20.71
2018-04-13T18:37:22.141Z,20.72
2018-04-13T18:39:49.700Z,20.75
2018-04-13T18:42:17.266Z,20.77
2018-04-13T18:44:44.819Z,20.60
2018-04-13T18:47:12.386Z,20.75
2018-04-13T18:49:39.988Z,20.75
2018-04-13T18:52:07.546Z,20.66
2018-04-13T18:54:35.116Z,20.72
2018-04-13T18:57:02.631Z,20.66
2018-04-13T18:59:30.183Z,20.65
2018-04-13T19:01:57.723Z,20.61
2018-04-13T19:04:25.239Z,20.49
2018-04-13T19:06:52.796Z,20.45
2018-04-13T19:09:20.317Z,20.40
2018-04-13T19:11:47.826Z,20.18
2018-04-13T19:14:15.356Z,20.43
2018-04-13T19:16:42.864Z,20.49
2018-04-13T19:19:10.432Z,20.29
2018-04-13T19:21:38.027Z,20.26
2018-04-13T19:24:05.544Z,20.29
2018-04-13T19:26:33.109Z,20.33
2018-04-13T19:29:00.611Z,20.34
2018-04-13T19:31:28.157Z,20.33
2018-04-13T19:33:55.671Z,20.32
2018-04-13T19:36:23.224Z,20.38
2018-04-13T19:38:50.753Z,20.19
2018-04-13T19:41:18.268Z,20.07
2018-04-13T19:43:45.818Z,19.91
2018-04-13T19:46:13.327Z,19.75
2018-04-13T19:48:40.836Z,19.86
2018-04-13T19:51:08.362Z,19.82
2018-04-13T19:53:35.912Z,19.79
2018-04-13T19:56:03.578Z,19.81
2018-04-13T19:58:31.154Z,19.75
2018-04-13T20:00:58.696Z,19.85
2018-04-13T20:03:26.253Z,19.80
2018-04-13T20:05:54.667Z,19.70
2018-04-13T20:08:22.215Z,19.59
2018-04-13T20:10:50.059Z,19.53
2018-04-13T20:13:17.572Z,19.24
2018-04-13T20:15:45.184Z,19.25
2018-04-13T20:18:12.703Z,19.31
2018-04-13T20:20:40.579Z,19.32
2018-04-13T20:23:08.145Z,19.11
2018-04-13T20:25:35.668Z,19.19
2018-04-13T20:28:03.199Z,19.02
2018-04-13T20:30:30.731Z,19.02
2018-04-13T20:32:58.230Z,19.06
2018-04-13T20:35:25.773Z,18.98
2018-04-13T20:37:53.287Z,19.02
2018-04-13T20:40:20.857Z,19.01
2018-04-13T20:42:48.415Z,18.94
2018-04-13T20:45:15.927Z,18.92
2018-04-13T20:47:43.487Z,18.95
2018-04-13T20:50:11.027Z,18.91
2018-04-13T20:52:38.535Z,18.89
2018-04-13T20:55:06.048Z,18.82
2018-04-13T20:57:33.565Z,18.78
2018-04-13T21:00:01.163Z,18.61
2018-04-13T21:02:28.735Z,18.67
2018-04-13T21:04:56.982Z,18.49
2018-04-13T21:07:24.528Z,18.36
2018-04-13T21:09:52.064Z,18.33
2018-04-13T21:12:19.574Z,18.34
2018-04-13T21:14:47.131Z,18.26
2018-04-13T21:17:14.675Z,18.19
2018-04-13T21:19:42.178Z,18.15
2018-04-13T21:22:09.684Z,18.17
2018-04-13T21:24:37.243Z,18.22
2018-04-13T21:27:04.805Z,18.17
2018-04-13T21:29:32.316Z,18.16
2018-04-13T21:31:59.870Z,18.08
2018-04-13T21:34:27.380Z,18.08
2018-04-13T21:36:54.887Z,18.03
2018-04-13T21:39:22.395Z,18.00
2018-04-13T21:41:49.905Z,17.99
2018-04-13T21:44:17.450Z,17.96
2018-04-13T21:46:44.959Z,17.98
2018-04-13T21:49:12.559Z,18.04
2018-04-13T21:51:40.063Z,18.01
2018-04-13T21:54:07.608Z,17.98
2018-04-13T21:56:35.135Z,17.95
2018-04-13T21:59:02.631Z,17.93
2018-04-13T22:01:30.176Z,17.96
2018-04-13T22:03:57.728Z,17.96
2018-04-13T22:06:25.288Z,17.97
2018-04-13T22:08:52.836Z,18.00
2018-04-13T22:11:20.348Z,17.88
2018-04-13T22:13:47.928Z,17.76
2018-04-13T22:16:15.432Z,17.82
2018-04-13T22:18:42.944Z,17.79
2018-04-13T22:21:10.463Z,17.79
2018-04-13T22:23:37.970Z,17.77
2018-04-13T22:26:05.523Z,17.76
2018-04-13T22:28:33.031Z,17.80
2018-04-13T22:31:00.666Z,17.83
2018-04-13T22:33:28.172Z,17.89
2018-04-13T22:35:55.727Z,17.86
2018-04-13T22:38:23.231Z,17.84
2018-04-13T22:40:50.792Z,17.78
2018-04-13T22:43:18.295Z,17.82
2018-04-13T22:45:45.798Z,17.85
2018-04-13T22:48:13.318Z,17.79
2018-04-13T22:50:40.868Z,17.83
2018-04-13T22:53:08.412Z,17.78
2018-04-13T22:55:35.919Z,17.70
2018-04-13T22:58:03.508Z,17.70
2018-04-13T23:00:31.061Z,17.71
2018-04-13T23:02:58.608Z,17.74
2018-04-13T23:05:26.117Z,17.74
2018-04-13T23:07:53.676Z,17.78
2018-04-13T23:10:21.218Z,17.77
2018-04-13T23:12:48.718Z,17.70
2018-04-13T23:15:16.278Z,17.73
2018-04-13T23:17:43.798Z,17.61
2018-04-13T23:20:11.353Z,17.38
2018-04-13T23:22:38.858Z,17.30
2018-04-13T23:25:06.420Z,16.96
2018-04-13T23:27:33.926Z,16.98
2018-04-13T23:30:01.501Z,16.89
2018-04-13T23:32:29.054Z,16.79
2018-04-13T23:34:56.567Z,16.77
2018-04-13T23:37:24.122Z,16.63
2018-04-13T23:39:51.633Z,16.54
2018-04-13T23:42:19.193Z,16.69
2018-04-13T23:44:46.708Z,16.72
2018-04-13T23:47:14.299Z,16.72
2018-04-13T23:49:41.811Z,16.76
2018-04-13T23:52:09.321Z,16.72
2018-04-13T23:54:36.832Z,16.65
2018-04-13T23:57:04.336Z,16.58
2018-04-13T23:59:31.883Z,16.67
